Los Angeles, California
Traffic Map
Current Weather Conditions
Los Angeles, California
Clear
Clear
69°
Feels Like: 69°
Wind Chill: 69° Ceiling: Unl
Heat Index: 69° Visibility: 10mi
Dew Point: 60° Wind: 3mph
Humidity: 73% Direction: 260° (W)
Pressure: 29.93in Gusts: 0mph
Raw Report DataKCQT 250247Z AUTO 26003KT 10SM CLR 21/16 A2993 RMK AO2 SLP133 T02060156 53002 $
Traffic Incident Summary
Active as of:
Severity:
Category:
InformationThere was an issue retrieving the traffic information for this location. Please try a different location or try again shortly.
Advertisements
Track Severe Weather on mobile